sensor_id;sensor_type;location;lat;lon;timestamp;P1;durP1;ratioP1;P2;durP2;ratioP2
25509;SDS011;13413;52.336;21.200;2023-04-29T17:47:56;99.00;;;63.20;;
25509;SDS011;13413;52.336;21.200;2023-04-29T17:50:50;43.90;;;32.10;;
25509;SDS011;13413;52.336;21.200;2023-04-29T17:53:44;34.80;;;23.70;;
25509;SDS011;13413;52.336;21.200;2023-04-29T17:56:38;38.10;;;25.20;;
25509;SDS011;13413;52.336;21.200;2023-04-29T17:59:32;22.20;;;13.70;;
25509;SDS011;13413;52.336;21.200;2023-04-29T18:02:26;32.90;;;16.60;;
25509;SDS011;13413;52.336;21.200;2023-04-29T18:08:14;18.90;;;12.20;;
25509;SDS011;13413;52.336;21.200;2023-04-29T18:11:09;16.00;;;10.60;;
25509;SDS011;13413;52.336;21.200;2023-04-29T18:14:03;19.80;;;10.80;;
25509;SDS011;13413;52.336;21.200;2023-04-29T18:16:57;16.20;;;10.60;;
25509;SDS011;13413;52.336;21.200;2023-04-29T18:19:51;18.40;;;12.70;;
25509;SDS011;13413;52.336;21.200;2023-04-29T18:22:45;19.70;;;12.60;;
25509;SDS011;13413;52.336;21.200;2023-04-29T18:25:39;24.20;;;13.70;;
25509;SDS011;13413;52.336;21.200;2023-04-29T18:28:33;20.30;;;12.00;;
25509;SDS011;13413;52.336;21.200;2023-04-29T18:31:27;23.70;;;12.40;;
25509;SDS011;13413;52.336;21.200;2023-04-29T18:34:21;18.00;;;12.60;;
25509;SDS011;13413;52.336;21.200;2023-04-29T18:37:15;20.90;;;12.80;;
25509;SDS011;13413;52.336;21.200;2023-04-29T18:40:10;19.00;;;12.90;;
25509;SDS011;13413;52.336;21.200;2023-04-29T18:43:04;21.70;;;12.20;;
25509;SDS011;13413;52.336;21.200;2023-04-29T18:45:58;20.10;;;12.00;;
25509;SDS011;13413;52.336;21.200;2023-04-29T18:48:52;18.10;;;11.40;;
25509;SDS011;13413;52.336;21.200;2023-04-29T18:51:46;17.70;;;10.90;;
25509;SDS011;13413;52.336;21.200;2023-04-29T18:54:40;14.60;;;10.30;;
25509;SDS011;13413;52.336;21.200;2023-04-29T18:57:34;17.00;;;9.30;;
25509;SDS011;13413;52.336;21.200;2023-04-29T19:03:24;14.50;;;9.90;;
25509;SDS011;13413;52.336;21.200;2023-04-29T19:06:18;18.20;;;10.00;;
25509;SDS011;13413;52.336;21.200;2023-04-29T19:09:12;20.30;;;10.50;;
25509;SDS011;13413;52.336;21.200;2023-04-29T19:12:06;12.20;;;9.40;;
25509;SDS011;13413;52.336;21.200;2023-04-29T19:15:00;18.00;;;10.00;;
25509;SDS011;13413;52.336;21.200;2023-04-29T19:17:54;12.30;;;8.70;;
25509;SDS011;13413;52.336;21.200;2023-04-29T19:20:48;18.50;;;10.00;;
25509;SDS011;13413;52.336;21.200;2023-04-29T19:23:42;23.30;;;12.70;;
25509;SDS011;13413;52.336;21.200;2023-04-29T19:26:36;30.90;;;13.10;;
25509;SDS011;13413;52.336;21.200;2023-04-29T19:29:30;19.50;;;10.20;;
25509;SDS011;13413;52.336;21.200;2023-04-29T19:32:24;16.10;;;10.90;;
25509;SDS011;13413;52.336;21.200;2023-04-29T19:35:18;20.10;;;11.20;;
25509;SDS011;13413;52.336;21.200;2023-04-29T19:38:12;24.80;;;12.60;;
25509;SDS011;13413;52.336;21.200;2023-04-29T19:41:06;18.90;;;12.20;;
25509;SDS011;13413;52.336;21.200;2023-04-29T19:44:00;22.00;;;12.70;;
25509;SDS011;13413;52.336;21.200;2023-04-29T19:46:54;51.60;;;33.00;;
25509;SDS011;13413;52.336;21.200;2023-04-29T19:49:48;27.00;;;19.20;;
25509;SDS011;13413;52.336;21.200;2023-04-29T19:52:42;31.20;;;17.20;;
25509;SDS011;13413;52.336;21.200;2023-04-29T19:55:36;23.70;;;16.50;;
25509;SDS011;13413;52.336;21.200;2023-04-29T20:06:57;25.40;;;15.00;;
25509;SDS011;13413;52.336;21.200;2023-04-29T20:09:52;26.70;;;16.10;;
25509;SDS011;13413;52.336;21.200;2023-04-29T20:12:46;30.50;;;17.40;;
25509;SDS011;13413;52.336;21.200;2023-04-29T20:15:40;72.40;;;32.80;;
25509;SDS011;13413;52.336;21.200;2023-04-29T20:18:47;50.20;;;27.20;;
25509;SDS011;13413;52.336;21.200;2023-04-29T20:24:37;29.40;;;16.60;;
25509;SDS011;13413;52.336;21.200;2023-04-29T20:27:31;31.20;;;17.00;;
25509;SDS011;13413;52.336;21.200;2023-04-29T20:30:25;27.50;;;17.50;;
25509;SDS011;13413;52.336;21.200;2023-04-29T20:33:19;24.90;;;17.30;;
25509;SDS011;13413;52.336;21.200;2023-04-29T20:36:12;22.90;;;17.00;;
25509;SDS011;13413;52.336;21.200;2023-04-29T20:39:06;32.50;;;18.30;;
25509;SDS011;13413;52.336;21.200;2023-04-29T20:42:01;34.30;;;19.00;;
25509;SDS011;13413;52.336;21.200;2023-04-29T20:44:55;29.30;;;19.90;;
25509;SDS011;13413;52.336;21.200;2023-04-29T20:47:50;26.20;;;18.50;;
25509;SDS011;13413;52.336;21.200;2023-04-29T20:50:44;26.00;;;17.20;;
25509;SDS011;13413;52.336;21.200;2023-04-29T20:53:39;26.60;;;17.40;;
25509;SDS011;13413;52.336;21.200;2023-04-29T20:56:33;31.70;;;18.80;;
25509;SDS011;13413;52.336;21.200;2023-04-29T20:59:27;36.00;;;20.10;;
25509;SDS011;13413;52.336;21.200;2023-04-29T21:02:21;34.90;;;19.20;;
25509;SDS011;13413;52.336;21.200;2023-04-29T21:05:15;28.70;;;18.30;;
25509;SDS011;13413;52.336;21.200;2023-04-29T21:08:10;27.10;;;15.80;;
25509;SDS011;13413;52.336;21.200;2023-04-29T21:11:04;26.00;;;16.70;;
25509;SDS011;13413;52.336;21.200;2023-04-29T21:13:58;25.70;;;16.70;;
25509;SDS011;13413;52.336;21.200;2023-04-29T21:16:52;26.10;;;17.40;;
25509;SDS011;13413;52.336;21.200;2023-04-29T21:19:46;29.30;;;17.10;;
25509;SDS011;13413;52.336;21.200;2023-04-29T21:22:40;26.50;;;16.10;;
25509;SDS011;13413;52.336;21.200;2023-04-29T21:25:34;26.00;;;16.60;;
25509;SDS011;13413;52.336;21.200;2023-04-29T21:28:28;29.60;;;16.30;;
25509;SDS011;13413;52.336;21.200;2023-04-29T21:31:22;29.20;;;16.50;;
25509;SDS011;13413;52.336;21.200;2023-04-29T21:34:16;22.20;;;15.60;;
25509;SDS011;13413;52.336;21.200;2023-04-29T21:37:10;24.70;;;15.60;;
25509;SDS011;13413;52.336;21.200;2023-04-29T21:40:04;22.60;;;14.50;;
25509;SDS011;13413;52.336;21.200;2023-04-29T21:43:00;24.00;;;15.00;;
25509;SDS011;13413;52.336;21.200;2023-04-29T21:45:57;22.30;;;16.60;;
25509;SDS011;13413;52.336;21.200;2023-04-29T21:48:51;23.50;;;14.90;;
25509;SDS011;13413;52.336;21.200;2023-04-29T21:51:46;23.40;;;16.10;;
25509;SDS011;13413;52.336;21.200;2023-04-29T21:54:41;26.20;;;16.20;;
25509;SDS011;13413;52.336;21.200;2023-04-29T21:57:35;24.20;;;15.80;;
25509;SDS011;13413;52.336;21.200;2023-04-29T22:00:29;22.50;;;16.10;;
25509;SDS011;13413;52.336;21.200;2023-04-29T22:03:23;24.80;;;14.80;;
25509;SDS011;13413;52.336;21.200;2023-04-29T22:06:17;29.20;;;15.70;;
25509;SDS011;13413;52.336;21.200;2023-04-29T22:09:11;23.10;;;14.70;;
25509;SDS011;13413;52.336;21.200;2023-04-29T22:12:05;26.90;;;15.10;;
25509;SDS011;13413;52.336;21.200;2023-04-29T22:14:59;25.10;;;15.70;;
25509;SDS011;13413;52.336;21.200;2023-04-29T22:29:37;23.90;;;15.30;;
25509;SDS011;13413;52.336;21.200;2023-04-29T22:32:31;19.80;;;14.50;;
25509;SDS011;13413;52.336;21.200;2023-04-29T22:35:26;22.60;;;14.70;;
25509;SDS011;13413;52.336;21.200;2023-04-29T22:38:19;21.40;;;14.60;;
25509;SDS011;13413;52.336;21.200;2023-04-29T22:41:13;17.40;;;13.50;;
25509;SDS011;13413;52.336;21.200;2023-04-29T22:44:07;72.30;;;19.20;;
25509;SDS011;13413;52.336;21.200;2023-04-29T22:47:01;51.80;;;17.00;;
25509;SDS011;13413;52.336;21.200;2023-04-29T22:49:56;25.00;;;15.40;;
25509;SDS011;13413;52.336;21.200;2023-04-29T22:52:49;25.00;;;15.80;;
25509;SDS011;13413;52.336;21.200;2023-04-29T22:55:48;23.90;;;15.30;;
25509;SDS011;13413;52.336;21.200;2023-04-29T22:58:44;28.40;;;16.10;;
25509;SDS011;13413;52.336;21.200;2023-04-29T23:01:37;25.00;;;15.30;;
25509;SDS011;13413;52.336;21.200;2023-04-29T23:04:31;24.70;;;15.40;;
25509;SDS011;13413;52.336;21.200;2023-04-29T23:07:25;25.40;;;15.80;;
25509;SDS011;13413;52.336;21.200;2023-04-29T23:10:20;26.70;;;15.10;;
25509;SDS011;13413;52.336;21.200;2023-04-29T23:13:13;21.30;;;14.10;;
25509;SDS011;13413;52.336;21.200;2023-04-29T23:16:08;22.30;;;14.90;;
25509;SDS011;13413;52.336;21.200;2023-04-29T23:19:01;25.50;;;16.30;;
25509;SDS011;13413;52.336;21.200;2023-04-29T23:21:56;24.60;;;16.20;;
25509;SDS011;13413;52.336;21.200;2023-04-29T23:24:50;24.70;;;16.70;;
25509;SDS011;13413;52.336;21.200;2023-04-29T23:27:44;24.50;;;15.80;;
25509;SDS011;13413;52.336;21.200;2023-04-29T23:30:39;26.20;;;16.30;;
25509;SDS011;13413;52.336;21.200;2023-04-29T23:33:32;25.30;;;16.60;;
25509;SDS011;13413;52.336;21.200;2023-04-29T23:36:27;27.20;;;17.50;;
25509;SDS011;13413;52.336;21.200;2023-04-29T23:39:20;20.80;;;16.30;;
25509;SDS011;13413;52.336;21.200;2023-04-29T23:42:15;26.60;;;16.10;;
25509;SDS011;13413;52.336;21.200;2023-04-29T23:48:03;24.90;;;16.50;;
25509;SDS011;13413;52.336;21.200;2023-04-29T23:50:56;26.90;;;15.80;;
25509;SDS011;13413;52.336;21.200;2023-04-29T23:53:50;22.70;;;16.60;;
25509;SDS011;13413;52.336;21.200;2023-04-29T23:56:44;23.30;;;16.30;;
25509;SDS011;13413;52.336;21.200;2023-04-29T23:59:39;26.90;;;17.40;;
